Bassano, Canada
Current Conditions -  °F | °C
As of 8:00 PM on Monday 26 Jan 2015 (Local Time) from CYYC Reporting Station
Few Clouds Few Clouds  
Wind Chill: 35°   Ceiling: Unl
Heat Index: 39°   Visibility: 15mi
Dew Point: 30°   Wind: 6mph
Humidity: 70%   Direction: 210°SSW
Pressure: 29.73"   Gusts: NA
Location:  50.78°N, 112.47°W
Report Text: CYYC 270300Z 21005KT 15SM FEW300 04/M01 A2973 RMK CI1 CI TR SLP099
Loading
Personal Weather Stations






























Interactive Weather Map New forecast layout! Learn more

10-Day Weather Forecast

Advertisements
Track Severe Weather on mobile